Time;durP1;ratioP1;P1;durP2;ratioP2;P2;SDS_P1;SDS_P2;PMS_P1;PMS_P2;Temp;Humidity;BMP_temperature;BMP_pressure;BME280_temperature;BME280_humidity;BME280_pressure;Samples;Min_cycle;Max_cycle;Signal;HPM_P1;HPM_P2
2020/12/25 00:01:22;;;;;;;0.50;0.40;;;21.20;45.30;;;;;;6244167;28;20498;-68
2020/12/25 00:04:23;;;;;;;0.40;0.20;;;21.20;45.50;;;;;;6257042;28;20036;-68
2020/12/25 00:07:23;;;;;;;0.55;0.50;;;21.20;45.30;;;;;;6269038;28;20032;-68
2020/12/25 00:10:24;;;;;;;0.65;0.43;;;21.20;45.40;;;;;;6267803;28;20125;-68
2020/12/25 00:13:24;;;;;;;0.40;0.30;;;21.20;45.50;;;;;;6267196;28;20045;-67
2020/12/25 00:16:26;;;;;;;0.75;0.50;;;21.10;45.50;;;;;;6268572;28;20399;-68
2020/12/25 00:19:27;;;;;;;0.40;0.32;;;21.20;45.50;;;;;;6248331;28;20013;-67
2020/12/25 00:22:27;;;;;;;0.38;0.25;;;21.20;45.50;;;;;;6243876;28;20068;-68
2020/12/25 00:25:27;;;;;;;0.73;0.30;;;21.10;45.40;;;;;;6243955;28;20025;-68
2020/12/25 00:28:28;;;;;;;0.40;0.35;;;21.10;45.40;;;;;;6268265;28;20047;-68
2020/12/25 00:31:38;;;;;;;0.50;0.50;;;21.10;45.40;;;;;;6267246;28;20506;-68
2020/12/25 00:34:38;;;;;;;0.55;0.40;;;21.10;45.40;;;;;;6266995;28;20124;-68
2020/12/25 00:37:39;;;;;;;0.40;0.40;;;21.20;45.30;;;;;;6267601;28;20301;-67
2020/12/25 00:40:43;;;;;;;0.30;0.20;;;21.20;45.30;;;;;;6267758;28;20120;-68
2020/12/25 00:43:44;;;;;;;0.35;0.32;;;21.10;45.20;;;;;;6265824;28;20025;-66
2020/12/25 00:46:45;;;;;;;0.60;0.50;;;21.20;45.30;;;;;;6243234;28;20530;-68
2020/12/25 00:49:46;;;;;;;0.30;0.30;;;21.10;45.40;;;;;;6242699;28;20032;-68
2020/12/25 00:52:46;;;;;;;0.20;0.20;;;21.10;45.40;;;;;;6242953;28;20034;-67
2020/12/25 00:55:47;;;;;;;0.22;0.20;;;21.10;45.40;;;;;;6243278;28;20057;-68
2020/12/25 00:58:47;;;;;;;0.60;0.50;;;21.10;45.30;;;;;;6243489;28;20105;-68
2020/12/25 01:01:51;;;;;;;0.57;0.30;;;21.10;45.40;;;;;;6241619;28;20029;-68
2020/12/25 01:04:51;;;;;;;0.65;0.40;;;21.10;46.10;;;;;;6246448;28;20029;-68
2020/12/25 01:07:52;;;;;;;0.90;0.30;;;21.10;45.30;;;;;;6242502;28;20234;-67
2020/12/25 01:10:52;;;;;;;0.40;0.40;;;21.10;45.30;;;;;;6242245;28;20052;-68
2020/12/25 01:13:53;;;;;;;0.40;0.40;;;21.10;45.20;;;;;;6243168;28;20030;-67
2020/12/25 01:16:55;;;;;;;1.13;0.40;;;21.10;45.20;;;;;;6265042;28;20035;-67
2020/12/25 01:19:56;;;;;;;0.43;0.20;;;21.10;45.30;;;;;;6267382;28;20053;-68
2020/12/25 01:22:56;;;;;;;0.30;0.30;;;21.10;45.40;;;;;;6267368;28;20029;-67
2020/12/25 01:25:57;;;;;;;0.50;0.30;;;21.10;45.20;;;;;;6253618;28;20048;-68
2020/12/25 01:29:02;;;;;;;0.30;0.30;;;21.10;45.20;;;;;;6243039;28;20018;-67
2020/12/25 01:32:03;;;;;;;0.47;0.30;;;21.10;45.10;;;;;;6242126;28;20029;-66
2020/12/25 01:35:04;;;;;;;0.40;0.40;;;21.10;45.10;;;;;;6246393;28;20071;-67
2020/12/25 01:38:05;;;;;;;0.50;0.30;;;21.10;45.10;;;;;;6266921;28;20025;-67
2020/12/25 01:41:05;;;;;;;0.65;0.38;;;21.10;45.20;;;;;;6242614;28;20076;-67
2020/12/25 01:44:06;;;;;;;0.77;0.40;;;21.10;45.10;;;;;;6240901;28;20444;-67
2020/12/25 01:47:06;;;;;;;0.70;0.30;;;21.10;45.10;;;;;;6261624;28;20416;-67
2020/12/25 01:50:07;;;;;;;1.17;0.40;;;21.10;45.10;;;;;;6272223;28;20379;-68
2020/12/25 01:53:10;;;;;;;0.80;0.30;;;21.00;45.10;;;;;;6271815;28;20029;-68
2020/12/25 01:56:12;;;;;;;0.82;0.50;;;21.00;45.10;;;;;;6262037;28;20036;-68
2020/12/25 01:59:13;;;;;;;0.75;0.30;;;21.00;45.10;;;;;;6246539;28;20029;-68
2020/12/25 02:02:15;;;;;;;0.32;0.32;;;21.00;45.10;;;;;;6246450;28;20095;-66
2020/12/25 02:05:15;;;;;;;0.50;0.30;;;21.00;45.10;;;;;;6247692;28;20029;-68
2020/12/25 02:08:16;;;;;;;0.43;0.25;;;21.00;44.90;;;;;;6270174;28;20042;-67
2020/12/25 02:11:18;;;;;;;1.05;0.35;;;21.00;44.70;;;;;;6271177;28;20037;-68
2020/12/25 02:14:18;;;;;;;1.55;0.40;;;21.00;44.70;;;;;;6271511;28;20088;-68
2020/12/25 02:17:19;;;;;;;0.43;0.30;;;21.00;44.80;;;;;;6254666;28;20473;-68
2020/12/25 02:20:19;;;;;;;0.60;0.30;;;21.00;44.80;;;;;;6244283;28;20063;-69
2020/12/25 02:23:20;;;;;;;0.28;0.20;;;21.00;44.90;;;;;;6246806;28;20453;-67
2020/12/25 02:26:20;;;;;;;0.13;0.13;;;21.00;44.90;;;;;;6253438;28;20029;-68
2020/12/25 02:29:21;;;;;;;0.60;0.20;;;21.00;44.90;;;;;;6262221;28;20063;-68
2020/12/25 02:32:21;;;;;;;0.35;0.30;;;21.00;44.80;;;;;;6254656;28;20108;-67
2020/12/25 02:35:22;;;;;;;0.38;0.30;;;21.00;45.00;;;;;;6271431;28;20037;-68
2020/12/25 02:38:22;;;;;;;0.43;0.28;;;21.00;44.90;;;;;;6270029;28;20088;-67
2020/12/25 02:41:23;;;;;;;0.28;0.28;;;21.00;44.90;;;;;;6270821;28;20133;-68
2020/12/25 02:44:23;;;;;;;1.17;0.30;;;21.00;45.00;;;;;;6270576;28;20032;-68
2020/12/25 02:47:24;;;;;;;0.20;0.20;;;21.00;45.10;;;;;;6267968;28;20090;-68
2020/12/25 02:50:24;;;;;;;0.20;0.20;;;21.00;45.20;;;;;;6246522;28;20037;-68
2020/12/25 02:53:25;;;;;;;0.95;0.30;;;21.00;45.10;;;;;;6245967;28;20037;-67
2020/12/25 02:56:25;;;;;;;0.20;0.20;;;21.00;45.00;;;;;;6248118;28;20038;-69
2020/12/25 02:59:26;;;;;;;0.35;0.30;;;21.00;45.00;;;;;;6270427;28;20060;-67
2020/12/25 03:02:26;;;;;;;0.35;0.20;;;21.00;45.00;;;;;;6269983;28;20012;-68
2020/12/25 03:05:27;;;;;;;0.75;0.32;;;21.00;44.90;;;;;;6269981;28;20506;-67
2020/12/25 03:08:27;;;;;;;0.50;0.30;;;21.00;44.80;;;;;;6252937;28;20484;-68
2020/12/25 03:11:28;;;;;;;0.30;0.20;;;21.00;44.90;;;;;;6245062;28;20055;-67
2020/12/25 03:14:28;;;;;;;0.15;0.15;;;20.90;44.90;;;;;;6245467;28;20550;-66
2020/12/25 03:17:29;;;;;;;0.25;0.25;;;21.00;45.00;;;;;;6244831;28;20500;-67
2020/12/25 03:20:29;;;;;;;0.73;0.30;;;21.00;45.10;;;;;;6243279;28;20033;-67
2020/12/25 03:23:30;;;;;;;0.32;0.30;;;20.90;45.00;;;;;;6259237;28;20365;-67
2020/12/25 03:26:30;;;;;;;0.40;0.30;;;20.90;45.00;;;;;;6269843;28;20415;-67
2020/12/25 03:29:30;;;;;;;0.73;0.32;;;20.90;45.20;;;;;;6257780;28;20383;-67
2020/12/25 03:32:31;;;;;;;0.20;0.20;;;20.90;45.10;;;;;;6262884;28;20689;-67
2020/12/25 03:35:31;;;;;;;0.35;0.30;;;20.90;45.20;;;;;;6245005;28;20040;-67
2020/12/25 03:38:32;;;;;;;0.25;0.25;;;20.90;45.30;;;;;;6244798;28;20163;-67
2020/12/25 03:41:32;;;;;;;0.10;0.10;;;20.90;45.20;;;;;;6244164;28;20032;-67
2020/12/25 03:44:33;;;;;;;0.40;0.30;;;20.90;45.20;;;;;;6244694;28;20021;-67
2020/12/25 03:47:33;;;;;;;0.13;0.13;;;20.90;45.20;;;;;;6247652;28;20033;-67
2020/12/25 03:50:34;;;;;;;0.30;0.30;;;20.90;45.20;;;;;;6268645;28;20033;-67
2020/12/25 03:53:34;;;;;;;0.30;0.20;;;20.90;45.20;;;;;;6268728;28;20159;-67
2020/12/25 03:56:34;;;;;;;1.05;0.30;;;20.90;45.20;;;;;;6269070;28;20072;-68
2020/12/25 03:59:35;;;;;;;0.63;0.30;;;20.90;45.20;;;;;;6249785;28;20057;-68
2020/12/25 04:02:35;;;;;;;0.40;0.20;;;20.90;45.30;;;;;;6242178;28;20073;-67
2020/12/25 04:05:36;;;;;;;0.30;0.30;;;20.90;45.30;;;;;;6242817;28;20025;-67
2020/12/25 04:08:37;;;;;;;0.20;0.20;;;20.90;45.30;;;;;;6252630;28;20060;-66
2020/12/25 04:11:38;;;;;;;0.20;0.20;;;20.90;45.30;;;;;;6268016;28;20074;-67
2020/12/25 04:14:38;;;;;;;0.82;0.28;;;20.90;45.30;;;;;;6266855;28;20025;-67
2020/12/25 04:17:39;;;;;;;0.20;0.20;;;20.90;45.30;;;;;;6268053;28;20025;-67
2020/12/25 04:20:40;;;;;;;0.57;0.50;;;20.90;45.30;;;;;;6243170;28;20151;-68
2020/12/25 04:23:40;;;;;;;0.32;0.20;;;20.90;45.40;;;;;;6251521;28;20365;-67
2020/12/25 04:26:46;;;;;;;0.15;0.15;;;20.90;45.40;;;;;;6267911;28;20024;-67
2020/12/25 04:29:46;;;;;;;;;;;20.90;45.40;;;;;;6265762;28;20480;-68
2020/12/25 04:32:46;;;;;;;0.20;0.20;;;20.90;45.40;;;;;;6268264;28;19905;-67
2020/12/25 04:35:47;;;;;;;0.35;0.20;;;20.90;45.30;;;;;;6267587;28;20032;-67
2020/12/25 04:38:47;;;;;;;0.40;0.15;;;20.90;45.30;;;;;;6268184;28;20479;-67
2020/12/25 04:41:48;;;;;;;0.22;0.20;;;20.90;45.30;;;;;;6267694;28;20472;-67
2020/12/25 04:44:48;;;;;;;0.50;0.20;;;20.90;45.10;;;;;;6268465;28;20430;-67
2020/12/25 04:47:52;;;;;;;0.30;0.30;;;20.90;45.20;;;;;;6269148;28;20017;-67
2020/12/25 04:50:52;;;;;;;0.20;0.17;;;20.90;45.30;;;;;;6246802;28;20400;-67
2020/12/25 04:53:54;;;;;;;0.13;0.13;;;20.90;45.30;;;;;;6243137;28;20033;-67
2020/12/25 04:56:58;;;;;;;0.10;0.10;;;20.90;45.30;;;;;;6243410;28;20030;-67
2020/12/25 04:59:59;;;;;;;0.28;0.28;;;20.90;45.30;;;;;;6254419;28;20020;-68
2020/12/25 05:02:59;;;;;;;0.13;0.13;;;20.80;45.40;;;;;;6266571;28;20021;-67
2020/12/25 05:06:07;;;;;;;0.20;0.20;;;20.80;45.40;;;;;;6248167;28;20095;-67
2020/12/25 05:09:08;;;;;;;0.25;0.25;;;20.80;45.40;;;;;;6247333;28;20021;-67
2020/12/25 05:12:13;;;;;;;0.20;0.20;;;20.80;45.30;;;;;;6267141;28;20388;-67
2020/12/25 05:15:14;;;;;;;0.73;0.20;;;20.90;45.40;;;;;;6255220;28;20473;-67
2020/12/25 05:18:17;;;;;;;0.98;0.20;;;20.90;45.30;;;;;;6242938;28;20025;-67
2020/12/25 05:21:20;;;;;;;0.35;0.30;;;20.90;45.30;;;;;;6262522;28;20028;-67
2020/12/25 05:24:20;;;;;;;0.20;0.17;;;20.90;45.30;;;;;;6272791;28;20029;-67
2020/12/25 05:27:23;;;;;;;0.30;0.30;;;20.90;45.10;;;;;;6271945;28;20056;-67
2020/12/25 05:30:24;;;;;;;0.30;0.30;;;20.90;45.10;;;;;;6260930;28;20029;-66
2020/12/25 05:33:25;;;;;;;0.20;0.20;;;20.90;45.10;;;;;;6246045;28;20518;-67
2020/12/25 05:36:30;;;;;;;0.28;0.28;;;20.90;45.10;;;;;;6266878;28;20054;-67
2020/12/25 05:39:32;;;;;;;0.10;0.10;;;20.90;45.10;;;;;;6269287;28;20264;-67
2020/12/25 05:42:48;;;;;;;0.30;0.22;;;20.90;45.10;;;;;;6247219;28;20022;-67
2020/12/25 05:45:48;;;;;;;0.20;0.13;;;20.90;45.30;;;;;;6248370;28;20032;-67
2020/12/25 05:48:51;;;;;;;0.52;0.20;;;20.90;45.30;;;;;;6248705;28;20489;-66
2020/12/25 05:51:51;;;;;;;0.30;0.20;;;20.90;45.10;;;;;;6268388;28;20025;-67
2020/12/25 05:54:55;;;;;;;0.15;0.15;;;20.90;45.20;;;;;;6271056;28;20494;-67
2020/12/25 05:57:56;;;;;;;0.10;0.10;;;20.90;45.90;;;;;;6271441;28;20040;-67
2020/12/25 06:00:57;;;;;;;0.20;0.20;;;20.90;45.30;;;;;;6261199;28;20420;-67
2020/12/25 06:03:58;;;;;;;0.10;0.10;;;20.90;45.30;;;;;;6247255;28;20025;-67
2020/12/25 06:07:00;;;;;;;0.20;0.20;;;20.90;45.30;;;;;;6246569;28;20045;-67
2020/12/25 06:10:00;;;;;;;0.17;0.17;;;20.90;45.20;;;;;;6248766;28;20397;-67
2020/12/25 06:13:00;;;;;;;0.40;0.20;;;21.00;45.60;;;;;;6269669;28;20020;-67
2020/12/25 06:16:03;;;;;;;0.47;0.17;;;21.10;45.60;;;;;;6276588;28;20548;-67
2020/12/25 06:19:25;;;;;;;0.25;0.20;;;21.20;45.50;;;;;;6266305;28;20082;-68
2020/12/25 06:22:30;;;;;;;0.10;0.10;;;21.20;45.40;;;;;;6270789;28;20055;-67
2020/12/25 06:25:32;;;;;;;0.20;0.20;;;21.30;45.30;;;;;;6266515;28;20029;-67
2020/12/25 06:28:33;;;;;;;0.55;0.10;;;21.30;45.60;;;;;;6249762;28;20021;-67
2020/12/25 06:31:49;;;;;;;0.10;0.10;;;21.30;45.80;;;;;;6257004;28;20079;-68
2020/12/25 06:34:51;;;;;;;0.32;0.15;;;21.40;45.80;;;;;;6245781;28;20087;-67
2020/12/25 06:37:52;;;;;;;0.10;0.10;;;21.40;45.90;;;;;;6245796;28;20072;-68
2020/12/25 06:40:57;;;;;;;0.20;0.10;;;21.40;45.80;;;;;;6245780;28;20419;-68
2020/12/25 06:43:58;;;;;;;0.10;0.10;;;21.40;46.00;;;;;;6245931;28;20019;-67
2020/12/25 06:47:03;;;;;;;0.40;0.30;;;21.40;45.90;;;;;;6244586;28;20515;-66
2020/12/25 06:50:14;;;;;;;0.40;0.30;;;21.40;46.00;;;;;;6245260;28;20497;-67
2020/12/25 06:53:39;;;;;;;0.38;0.30;;;21.50;45.90;;;;;;6244188;28;20500;-67
2020/12/25 06:56:44;;;;;;;0.17;0.17;;;21.40;45.90;;;;;;6261424;28;20057;-68
2020/12/25 06:59:47;;;;;;;0.10;0.10;;;21.50;46.00;;;;;;6245217;28;20774;-67
2020/12/25 07:02:48;;;;;;;0.20;0.20;;;21.50;46.10;;;;;;6246718;28;20033;-67
2020/12/25 07:05:49;;;;;;;0.10;0.10;;;21.50;45.90;;;;;;6245671;28;20060;-67
2020/12/25 07:08:52;;;;;;;0.30;0.20;;;21.50;45.90;;;;;;6246002;28;20029;-67
2020/12/25 07:11:53;;;;;;;0.32;0.20;;;21.50;46.00;;;;;;6246125;28;20138;-67
2020/12/25 07:14:53;;;;;;;0.20;0.20;;;21.50;46.70;;;;;;6245942;28;20029;-66
2020/12/25 07:17:53;;;;;;;0.63;0.30;;;21.50;46.00;;;;;;6260460;28;20083;-67
2020/12/25 07:20:56;;;;;;;0.30;0.25;;;21.50;46.00;;;;;;6270446;28;20039;-67
2020/12/25 07:23:58;;;;;;;0.10;0.10;;;21.50;46.10;;;;;;6249515;28;20029;-66
2020/12/25 07:26:58;;;;;;;0.17;0.08;;;21.50;46.00;;;;;;6245150;28;20025;-67
2020/12/25 07:29:59;;;;;;;0.10;0.10;;;21.50;46.00;;;;;;6260818;28;20040;-66
2020/12/25 07:32:59;;;;;;;0.13;0.13;;;21.60;46.10;;;;;;6257531;28;20037;-67
2020/12/25 07:36:00;;;;;;;0.10;0.10;;;21.50;46.10;;;;;;6245899;28;20025;-67
2020/12/25 07:39:03;;;;;;;0.10;0.10;;;21.50;46.00;;;;;;6266229;28;20044;-67
2020/12/25 07:42:06;;;;;;;0.40;0.30;;;21.50;46.10;;;;;;6264841;28;20103;-67
2020/12/25 07:45:07;;;;;;;0.40;0.10;;;21.50;46.10;;;;;;6244477;28;20030;-67
2020/12/25 07:48:08;;;;;;;0.20;0.20;;;21.50;46.00;;;;;;6245329;28;20411;-67
2020/12/25 07:51:08;;;;;;;0.10;0.10;;;21.60;45.90;;;;;;6245483;28;20377;-67
2020/12/25 07:54:09;;;;;;;0.40;0.22;;;21.60;46.90;;;;;;6264181;28;20033;-66
2020/12/25 07:57:10;;;;;;;0.17;0.17;;;21.60;46.10;;;;;;6270101;28;20033;-67
2020/12/25 08:00:10;;;;;;;0.10;0.10;;;21.50;46.10;;;;;;6269751;28;20475;-66
2020/12/25 08:03:12;;;;;;;0.25;0.20;;;21.50;46.00;;;;;;6259772;28;20021;-66
2020/12/25 08:06:14;;;;;;;0.30;0.20;;;21.60;46.30;;;;;;6245117;28;20033;-67
2020/12/25 08:09:15;;;;;;;0.20;0.20;;;21.50;46.10;;;;;;6262795;28;20021;-67
2020/12/25 08:12:18;;;;;;;0.10;0.10;;;21.50;46.10;;;;;;6268824;28;20431;-67
2020/12/25 08:15:19;;;;;;;0.47;0.17;;;21.50;46.20;;;;;;6244815;28;20021;-68
2020/12/25 08:18:20;;;;;;;0.10;0.10;;;21.50;46.30;;;;;;6245163;28;20022;-67
2020/12/25 08:21:20;;;;;;;0.30;0.22;;;21.50;46.20;;;;;;6244095;28;20022;-68
2020/12/25 08:24:22;;;;;;;0.20;0.20;;;21.50;46.30;;;;;;6261658;28;20032;-67
2020/12/25 08:27:23;;;;;;;0.43;0.25;;;21.50;46.20;;;;;;6269295;28;20024;-67
2020/12/25 08:30:25;;;;;;;0.20;0.20;;;21.50;46.20;;;;;;6263144;28;20472;-67
2020/12/25 08:33:26;;;;;;;0.20;0.20;;;21.50;46.30;;;;;;6261205;28;20128;-67
2020/12/25 08:36:27;;;;;;;0.20;0.20;;;21.50;46.20;;;;;;6244921;28;20067;-68
2020/12/25 08:39:29;;;;;;;0.20;0.20;;;21.50;46.30;;;;;;6260635;28;20427;-67
2020/12/25 08:42:29;;;;;;;0.10;0.10;;;21.50;46.20;;;;;;6269623;28;20455;-67
2020/12/25 08:45:30;;;;;;;0.20;0.20;;;21.50;46.90;;;;;;6245732;28;20025;-67
2020/12/25 08:48:32;;;;;;;0.10;0.10;;;21.50;46.30;;;;;;6243782;28;20141;-67
2020/12/25 08:51:33;;;;;;;0.15;0.13;;;21.50;46.40;;;;;;6256580;28;20017;-66
2020/12/25 08:54:34;;;;;;;0.10;0.10;;;21.40;46.30;;;;;;6256252;28;20866;-67
2020/12/25 08:57:34;;;;;;;0.25;0.10;;;21.50;46.30;;;;;;6243898;28;20073;-67
2020/12/25 09:00:35;;;;;;;0.10;0.10;;;21.50;46.30;;;;;;6261683;28;20036;-66
2020/12/25 09:03:37;;;;;;;0.10;0.10;;;21.50;46.30;;;;;;6266675;28;20032;-66
2020/12/25 09:06:38;;;;;;;0.13;0.13;;;21.50;46.20;;;;;;6244898;28;20029;-66
2020/12/25 09:09:38;;;;;;;0.20;0.10;;;21.50;46.20;;;;;;6244823;28;20503;-66
2020/12/25 09:12:38;;;;;;;0.10;0.10;;;21.50;46.20;;;;;;6245245;28;20072;-67
2020/12/25 09:15:39;;;;;;;0.10;0.10;;;21.50;46.20;;;;;;6260893;28;20029;-67
2020/12/25 09:18:40;;;;;;;0.30;0.30;;;21.50;46.30;;;;;;6244684;28;20021;-67
2020/12/25 09:21:41;;;;;;;0.38;0.20;;;21.50;46.00;;;;;;6242558;28;20100;-67
2020/12/25 09:24:42;;;;;;;0.65;0.30;;;21.50;45.90;;;;;;6252723;28;20100;-66
2020/12/25 09:27:42;;;;;;;0.10;0.10;;;21.50;46.00;;;;;;6268964;28;20033;-66
2020/12/25 09:30:43;;;;;;;0.10;0.10;;;21.50;45.90;;;;;;6247248;28;20104;-67
2020/12/25 09:33:43;;;;;;;0.20;0.20;;;21.50;45.90;;;;;;6243587;28;20037;-67
2020/12/25 09:36:44;;;;;;;0.50;0.20;;;21.50;45.90;;;;;;6267659;28;20041;-66
2020/12/25 09:39:44;;;;;;;0.20;0.20;;;21.60;46.00;;;;;;6268509;28;20032;-66
2020/12/25 09:42:45;;;;;;;0.47;0.10;;;21.50;45.80;;;;;;6268104;28;20075;-66
2020/12/25 09:45:46;;;;;;;0.20;0.20;;;21.60;45.90;;;;;;6253929;28;20099;-66
2020/12/25 09:48:46;;;;;;;0.52;0.20;;;21.60;45.80;;;;;;6264576;28;20317;-66
2020/12/25 09:51:46;;;;;;;0.15;0.10;;;21.60;45.90;;;;;;6245389;28;20037;-66
2020/12/25 09:54:47;;;;;;;0.20;0.20;;;21.60;45.90;;;;;;6248753;28;20487;-66
2020/12/25 09:57:47;;;;;;;0.20;0.20;;;21.60;46.00;;;;;;6268533;28;20084;-67
2020/12/25 10:00:48;;;;;;;0.50;0.28;;;21.60;45.90;;;;;;6267876;28;20025;-66
2020/12/25 10:03:48;;;;;;;0.38;0.20;;;21.60;46.00;;;;;;6268296;28;20033;-66
2020/12/25 10:06:49;;;;;;;0.10;0.10;;;21.50;46.00;;;;;;6248686;28;20112;-67
2020/12/25 10:09:49;;;;;;;0.20;0.17;;;21.60;45.90;;;;;;6245465;28;20064;-66
2020/12/25 10:12:50;;;;;;;7.32;0.40;;;21.60;45.90;;;;;;6247812;28;20080;-67
2020/12/25 10:15:52;;;;;;;37.35;1.85;;;21.50;45.60;;;;;;6238758;28;20071;-68
2020/12/25 10:18:53;;;;;;;25.70;0.88;;;21.50;45.80;;;;;;6244779;28;20026;-67
2020/12/25 10:21:53;;;;;;;21.48;0.90;;;21.60;46.30;;;;;;6246473;28;20032;-67
2020/12/25 10:24:54;;;;;;;5.43;0.85;;;21.70;46.20;;;;;;6247911;28;20079;-67
2020/12/25 10:27:54;;;;;;;1.77;0.70;;;21.30;40.90;;;;;;6270474;28;20021;-67
2020/12/25 10:30:55;;;;;;;2.05;0.65;;;21.00;38.50;;;;;;6249710;28;20040;-67
2020/12/25 10:33:55;;;;;;;3.78;1.02;;;20.80;37.00;;;;;;6258029;28;20053;-67
2020/12/25 10:36:56;;;;;;;14.30;1.48;;;20.70;36.80;;;;;;6270133;28;20033;-66
2020/12/25 10:39:57;;;;;;;4.10;0.77;;;20.80;35.50;;;;;;6269363;28;20049;-66
2020/12/25 10:42:57;;;;;;;3.65;1.10;;;20.60;34.60;;;;;;6252088;28;20092;-66
2020/12/25 10:45:58;;;;;;;3.35;0.70;;;20.50;34.20;;;;;;6244596;28;20467;-66
2020/12/25 10:48:58;;;;;;;3.63;0.98;;;20.50;34.10;;;;;;6245764;28;20149;-65
2020/12/25 10:51:59;;;;;;;9.10;1.63;;;20.50;33.90;;;;;;6245407;28;20033;-68
2020/12/25 10:54:59;;;;;;;4.88;0.93;;;20.60;36.00;;;;;;6249901;28;20021;-68
2020/12/25 10:58:00;;;;;;;3.03;0.63;;;20.90;38.00;;;;;;6230090;28;20033;-68
2020/12/25 11:01:00;;;;;;;8.98;0.82;;;21.20;39.10;;;;;;6226895;28;20109;-68
2020/12/25 11:04:01;;;;;;;8.77;1.10;;;21.30;38.50;;;;;;6246228;28;20021;-66
2020/12/25 11:07:02;;;;;;;6.38;0.82;;;21.30;38.90;;;;;;6257332;28;20098;-65
2020/12/25 11:10:02;;;;;;;1.17;0.50;;;21.40;40.00;;;;;;6270932;28;20029;-65
2020/12/25 11:13:03;;;;;;;2.05;0.70;;;21.40;40.70;;;;;;6271063;28;20083;-65
2020/12/25 11:16:03;;;;;;;1.77;0.88;;;21.40;40.50;;;;;;6270894;28;20040;-66
2020/12/25 11:19:08;;;;;;;5.97;0.80;;;21.40;41.00;;;;;;6270580;28;20030;-67
2020/12/25 11:22:13;;;;;;;1.77;0.63;;;21.40;41.10;;;;;;6260710;28;20059;-66
2020/12/25 11:25:14;;;;;;;1.73;0.95;;;21.40;41.60;;;;;;6263341;28;20464;-65
2020/12/25 11:28:14;;;;;;;1.48;0.50;;;21.40;41.70;;;;;;6269770;28;20166;-65
2020/12/25 11:31:15;;;;;;;3.50;0.45;;;21.40;41.40;;;;;;6245580;28;20037;-66
2020/12/25 11:34:15;;;;;;;1.10;0.55;;;21.40;41.50;;;;;;6245984;28;20105;-65
2020/12/25 11:37:16;;;;;;;1.30;0.60;;;21.40;41.90;;;;;;6252135;28;20029;-66
2020/12/25 11:40:16;;;;;;;1.08;0.43;;;21.40;41.70;;;;;;6270264;28;20021;-66
2020/12/25 11:43:17;;;;;;;1.10;0.50;;;21.50;41.90;;;;;;6269905;28;20039;-65
2020/12/25 11:46:18;;;;;;;0.68;0.43;;;21.40;41.90;;;;;;6270660;28;20036;-65
2020/12/25 11:49:19;;;;;;;1.00;0.50;;;21.50;42.10;;;;;;6246589;28;20392;-65
2020/12/25 11:52:19;;;;;;;1.33;0.45;;;21.50;42.30;;;;;;6245323;28;20033;-66
2020/12/25 11:55:20;;;;;;;1.35;0.55;;;21.40;42.20;;;;;;6245555;28;20021;-65
2020/12/25 11:58:20;;;;;;;0.88;0.50;;;21.50;42.40;;;;;;6259042;28;20160;-65
2020/12/25 12:01:21;;;;;;;1.95;0.57;;;21.50;42.40;;;;;;6270427;28;20434;-65
2020/12/25 12:04:21;;;;;;;2.30;0.60;;;21.40;42.50;;;;;;6269907;28;20028;-66
2020/12/25 12:07:21;;;;;;;0.60;0.40;;;21.40;42.70;;;;;;6266163;28;20029;-66
2020/12/25 12:10:22;;;;;;;1.00;0.57;;;21.40;42.80;;;;;;6246800;28;20044;-65
2020/12/25 12:13:23;;;;;;;0.40;0.40;;;21.40;42.50;;;;;;6246972;28;20593;-65
2020/12/25 12:16:24;;;;;;;1.10;0.60;;;21.40;42.80;;;;;;6245068;28;20033;-65
2020/12/25 12:19:25;;;;;;;1.30;0.60;;;21.40;42.90;;;;;;6265040;28;20024;-65
2020/12/25 12:22:25;;;;;;;2.00;0.70;;;21.40;42.90;;;;;;6269488;28;20127;-66
2020/12/25 12:25:26;;;;;;;0.57;0.40;;;21.40;42.80;;;;;;6245104;28;20036;-65
2020/12/25 12:28:27;;;;;;;1.15;0.60;;;21.40;43.10;;;;;;6253122;28;20573;-65
2020/12/25 12:31:27;;;;;;;0.90;0.50;;;21.40;43.20;;;;;;6243362;28;20021;-65
2020/12/25 12:34:28;;;;;;;0.88;0.40;;;21.40;43.30;;;;;;6261641;28;20025;-65
2020/12/25 12:37:28;;;;;;;0.70;0.43;;;21.40;43.20;;;;;;6269118;28;20419;-65
2020/12/25 12:40:29;;;;;;;1.23;0.43;;;21.30;43.40;;;;;;6269072;28;20333;-65
2020/12/25 12:43:29;;;;;;;1.10;0.45;;;21.40;43.50;;;;;;6259636;28;20029;-65
2020/12/25 12:46:29;;;;;;;1.15;0.47;;;21.30;43.70;;;;;;6244789;28;20021;-65
2020/12/25 12:49:30;;;;;;;0.47;0.30;;;21.30;43.60;;;;;;6260976;28;20107;-67
2020/12/25 12:52:30;;;;;;;1.48;0.40;;;21.30;43.70;;;;;;6268822;28;20033;-66
2020/12/25 12:55:31;;;;;;;0.60;0.38;;;21.30;43.50;;;;;;6269057;28;20044;-66
2020/12/25 12:58:33;;;;;;;1.33;0.50;;;21.30;43.40;;;;;;6261803;28;20104;-65
2020/12/25 13:01:34;;;;;;;0.70;0.47;;;21.40;43.70;;;;;;6243943;28;20037;-65
2020/12/25 13:04:34;;;;;;;0.45;0.40;;;21.30;43.30;;;;;;6246592;28;20384;-65
2020/12/25 13:07:35;;;;;;;0.80;0.40;;;21.40;43.90;;;;;;6244084;28;20388;-65
2020/12/25 13:10:35;;;;;;;1.15;0.50;;;21.30;43.60;;;;;;6264441;28;20051;-65
2020/12/25 13:13:36;;;;;;;0.70;0.50;;;21.30;43.60;;;;;;6269012;28;20045;-65
2020/12/25 13:16:36;;;;;;;0.65;0.38;;;21.40;43.60;;;;;;6249451;28;20038;-65
2020/12/25 13:19:37;;;;;;;0.40;0.20;;;21.40;43.30;;;;;;6254795;28;20043;-65
2020/12/25 13:22:38;;;;;;;0.93;0.40;;;21.40;43.40;;;;;;6268384;28;20060;-65
2020/12/25 13:25:38;;;;;;;0.85;0.50;;;21.40;43.50;;;;;;6249270;28;20025;-65
2020/12/25 13:28:39;;;;;;;0.80;0.35;;;21.40;43.40;;;;;;6245580;28;20028;-66
2020/12/25 13:31:39;;;;;;;0.60;0.20;;;21.40;43.40;;;;;;6241844;28;20036;-66
2020/12/25 13:34:40;;;;;;;0.50;0.22;;;21.40;43.60;;;;;;6243984;28;20419;-66
2020/12/25 13:37:40;;;;;;;1.63;0.75;;;21.40;43.80;;;;;;6243215;28;20025;-66
2020/12/25 13:40:41;;;;;;;0.63;0.30;;;21.40;43.80;;;;;;6260956;28;20147;-66
2020/12/25 13:43:42;;;;;;;0.40;0.30;;;21.40;43.60;;;;;;6270451;28;20068;-66
2020/12/25 13:46:46;;;;;;;0.43;0.35;;;21.40;43.50;;;;;;6273771;28;20434;-66
2020/12/25 13:49:47;;;;;;;1.20;0.43;;;21.50;44.20;;;;;;6249990;28;20127;-69
2020/12/25 13:52:47;;;;;;;1.08;0.40;;;21.40;42.50;;;;;;6247813;28;20268;-69
2020/12/25 13:55:48;;;;;;;0.88;0.40;;;21.50;43.00;;;;;;6251862;28;20541;-68
2020/12/25 13:58:49;;;;;;;1.27;0.70;;;21.60;42.90;;;;;;6245624;28;20029;-66
2020/12/25 14:01:50;;;;;;;2.67;0.40;;;21.70;42.30;;;;;;6246295;28;20021;-66
2020/12/25 14:04:50;;;;;;;1.63;0.60;;;21.60;42.80;;;;;;6246106;28;20044;-69
2020/12/25 14:07:51;;;;;;;9.20;0.80;;;21.60;41.60;;;;;;6246335;28;20061;-68
2020/12/25 14:10:52;;;;;;;3.92;1.10;;;21.20;36.60;;;;;;6259185;28;20044;-69
2020/12/25 14:13:53;;;;;;;3.45;0.95;;;21.00;34.50;;;;;;6268308;28;20029;-69
2020/12/25 14:16:53;;;;;;;2.88;0.90;;;20.90;33.20;;;;;;6252460;28;20607;-69
2020/12/25 14:19:53;;;;;;;1.92;0.50;;;20.80;32.60;;;;;;6251461;28;20550;-69
2020/12/25 14:22:54;;;;;;;2.25;0.70;;;20.70;33.90;;;;;;6264689;28;20025;-69
2020/12/25 14:25:54;;;;;;;2.47;0.80;;;21.00;37.40;;;;;;6253669;28;20037;-67
2020/12/25 14:28:55;;;;;;;4.38;0.50;;;21.20;35.70;;;;;;6246167;28;20026;-69
2020/12/25 14:31:55;;;;;;;42.50;1.98;;;21.40;37.90;;;;;;6254552;28;20499;-66
2020/12/25 14:34:56;;;;;;;7.78;0.90;;;21.50;38.30;;;;;;6246311;28;20037;-67
2020/12/25 14:37:56;;;;;;;1.20;0.60;;;21.50;38.80;;;;;;6247013;28;20030;-71
2020/12/25 14:40:57;;;;;;;2.58;0.77;;;21.50;38.50;;;;;;6246017;28;20192;-68
2020/12/25 14:43:58;;;;;;;3.20;0.68;;;21.60;37.80;;;;;;6246424;28;20037;-66
2020/12/25 14:46:58;;;;;;;4.47;0.50;;;21.60;38.10;;;;;;6257737;28;20022;-66
2020/12/25 14:49:58;;;;;;;4.80;0.75;;;21.60;40.10;;;;;;6265315;28;20618;-66
2020/12/25 14:52:59;;;;;;;5.72;0.50;;;21.70;39.50;;;;;;6245313;28;20087;-66
2020/12/25 14:55:59;;;;;;;4.72;0.80;;;21.60;38.60;;;;;;6246767;28;20044;-66
2020/12/25 14:59:00;;;;;;;1.95;0.65;;;21.70;39.30;;;;;;6244439;28;20034;-66
2020/12/25 15:02:00;;;;;;;2.40;0.55;;;21.70;39.70;;;;;;6248803;28;20044;-67
2020/12/25 15:05:01;;;;;;;1.38;0.65;;;21.60;39.00;;;;;;6244977;28;20025;-67
2020/12/25 15:08:01;;;;;;;5.05;1.23;;;21.70;38.90;;;;;;6253620;28;20029;-70
2020/12/25 15:11:02;;;;;;;3.05;0.95;;;21.70;39.00;;;;;;6252928;28;20492;-69
2020/12/25 15:14:03;;;;;;;4.47;1.55;;;21.80;38.90;;;;;;6243781;28;20618;-70
2020/12/25 15:17:03;;;;;;;2.28;1.13;;;21.80;39.50;;;;;;6251693;28;20067;-69
2020/12/25 15:20:03;;;;;;;4.50;1.55;;;21.80;39.70;;;;;;6253458;28;20064;-67
2020/12/25 15:23:04;;;;;;;2.97;1.60;;;21.80;39.50;;;;;;6266944;28;20021;-68
2020/12/25 15:26:05;;;;;;;1.90;1.30;;;21.80;40.80;;;;;;6266610;28;20025;-68
2020/12/25 15:29:06;;;;;;;2.88;1.60;;;21.90;40.70;;;;;;6252013;28;20494;-68
2020/12/25 15:32:07;;;;;;;3.05;1.67;;;21.90;40.70;;;;;;6252536;28;20037;-69
2020/12/25 15:35:07;;;;;;;1.88;1.30;;;21.90;40.90;;;;;;6253856;28;20037;-68
2020/12/25 15:38:08;;;;;;;1.80;1.30;;;21.90;40.60;;;;;;6263873;28;20033;-70
2020/12/25 15:41:12;;;;;;;2.33;1.27;;;21.90;40.70;;;;;;6269839;28;20577;-67
2020/12/25 15:44:12;;;;;;;1.80;1.20;;;21.80;40.40;;;;;;6265907;28;20093;-66